Data for 08/08/2017

Time Sea-Level Adjusted Pressure Absolute Pressure Temperature Relative Humidity Dew Point   
(mb) (inHg) (mb) (inHg) (C) (F) (%) (C) (F)
00:05 1022 30.18 851 25.13 16.1 61 37 1.7 35
00:10 1022 30.18 852 25.16 16.1 61 37 1.6 34.9
00:15 1022 30.18 852 25.16 16 60.8 38 1.9 35.3
00:20 1022 30.18 852 25.16 15.9 60.6 38 1.8 35.3
00:25 1022 30.18 852 25.16 16 60.7 38 1.7 35.1
00:30 1022 30.18 852 25.16 16 60.7 38 1.6 34.9
00:35 1022 30.18 852 25.16 15.9 60.6 37 1.5 34.7
00:40 1022 30.18 852 25.16 16 60.7 37 1.5 34.8
00:45 1022 30.18 852 25.16 16 60.9 37 1.4 34.5
00:50 1022 30.18 852 25.16 15.9 60.7 38 1.7 35.1
00:55 1022 30.18 852 25.16 15.7 60.3 39 1.9 35.5
01:00 1022 30.18 852 25.16 15.4 59.6 40 1.9 35.5
01:05 1022 30.18 852 25.16 15.3 59.6 40 1.8 35.3
01:10 1022 30.18 852 25.16 15.2 59.4 41 2.2 36
01:15 1022 30.18 852 25.16 15 59 41 2 35.6
01:20 1022 30.18 852 25.16 14.8 58.7 42 2.2 35.9
01:25 1022 30.18 852 25.16 14.7 58.5 42 2.1 35.8
01:30 1022 30.18 852 25.16 14.7 58.4 42 1.9 35.5
01:35 1022 30.18 852 25.16 14.8 58.7 41 2 35.5
01:40 1022 30.18 852 25.16 15 59 40 1.6 34.8
01:45 1022 30.18 852 25.16 15.1 59.2 40 1.6 34.9
01:50 1022 30.18 852 25.16 15 58.9 41 1.8 35.2
01:55 1022 30.18 852 25.16 14.7 58.5 41 1.8 35.2
02:00 1022 30.18 852 25.16 14.3 57.7 42 1.8 35.2
02:05 1022 30.18 852 25.16 14 57.3 43 1.7 35.1
02:10 1022 30.18 852 25.16 13.8 56.9 41 0.9 33.7
02:15 1022 30.18 852 25.16 13.8 56.8 42 1.1 34
02:20 1023 30.21 852 25.16 13.6 56.5 42 1.1 33.9
02:25 1023 30.21 852 25.16 13.6 56.4 42 1 33.8
02:30 1022 30.18 852 25.16 13.4 56.1 42 0.8 33.5
02:35 1022 30.18 852 25.16 13.6 56.4 41 0.8 33.4
02:40 1023 30.21 852 25.16 13.5 56.4 41 0.7 33.2
02:45 1023 30.21 852 25.16 13.8 56.8 40 0.6 33
02:50 1023 30.21 852 25.16 13.9 57 41 0.8 33.5
02:55 1023 30.21 852 25.16 14 57.3 41 0.9 33.7
03:00 1023 30.21 852 25.16 14.1 57.5 41 1.2 34.1
03:05 1023 30.21 852 25.16 14.4 57.9 41 1.3 34.3
03:10 1023 30.21 852 25.16 14.4 58 41 1.6 34.8
03:15 1023 30.21 852 25.16 14.3 57.8 41 1.4 34.6
03:20 1023 30.21 852 25.16 14.4 57.8 42 1.7 35
03:25 1023 30.21 852 25.16 14 57.1 43 1.8 35.2
03:30 1023 30.21 852 25.16 13.6 56.4 43 1.4 34.5
03:35 1023 30.21 852 25.16 13.6 56.4 44 1.5 34.7
03:40 1023 30.21 852 25.16 13.7 56.7 43 1.5 34.6
03:45 1023 30.21 852 25.16 14 57.3 43 1.8 35.3
03:50 1023 30.21 852 25.16 14 57.2 43 1.8 35.3
03:55 1023 30.21 852 25.16 14 57.2 44 2 35.5
04:00 1023 30.21 852 25.16 14 57.1 44 2.1 35.8
04:05 1023 30.21 852 25.16 13.7 56.6 46 2.3 36.2
04:10 1023 30.21 852 25.16 13.3 55.9 47 2.3 36.2
04:15 1023 30.21 852 25.16 13.2 55.8 47 2.1 35.8
04:20 1023 30.21 852 25.16 13.4 56.1 45 1.8 35.3
04:25 1023 30.21 852 25.16 13.8 56.8 45 2 35.6
04:30 1023 30.21 852 25.16 13.8 56.8 44 2 35.5
04:35 1023 30.21 853 25.19 13.7 56.7 44 1.8 35.3
04:40 1023 30.21 853 25.19 13.6 56.4 44 1.7 35.1
04:45 1023 30.21 853 25.19 13.5 56.2 45 1.7 35.1
04:50 1024 30.24 853 25.19 13.3 55.9 45 1.7 35.1
04:55 1024 30.24 853 25.19 13 55.5 45 1.5 34.7
05:00 1024 30.24 853 25.19 12.9 55.3 46 1.6 34.9
05:05 1024 30.24 853 25.19 12.8 55 47 1.7 35.1
05:10 1024 30.24 853 25.19 12.6 54.7 46 1.3 34.4
05:15 1024 30.24 853 25.19 12.8 55 46 1.6 34.8
05:20 1024 30.24 853 25.19 12.7 54.9 47 1.7 35.1
05:25 1024 30.24 853 25.19 12.6 54.7 47 1.6 34.9
05:30 1024 30.24 853 25.19 12.7 54.9 45 1.1 34
05:35 1024 30.24 853 25.19 12.8 55.1 47 1.9 35.4
05:40 1024 30.24 853 25.19 12.5 54.4 50 2.4 36.4
05:45 1024 30.24 853 25.19 12.1 53.9 52 2.7 36.8
05:50 1024 30.24 853 25.19 12 53.5 53 2.7 36.9
05:55 1024 30.24 853 25.19 11.9 53.4 53 2.8 37.1
06:00 1024 30.24 853 25.19 12 53.5 55 3.1 37.6
06:05 1024 30.24 853 25.19 12.1 53.7 54 3 37.4
06:10 1024 30.24 853 25.19 12 53.6 52 2.6 36.7
06:15 1024 30.24 853 25.19 12.1 53.8 52 2.6 36.7
06:20 1024 30.24 853 25.19 12.1 53.7 53 2.9 37.2
06:25 1024 30.24 853 25.19 11.8 53.3 56 3.4 38.1
06:30 1024 30.24 853 25.19 11.7 53 56 3.1 37.6
06:35 1024 30.24 853 25.19 11.8 53.2 54 2.8 37
06:40 1024 30.24 853 25.19 12.1 53.8 51 2.3 36.1
06:45 1024 30.24 853 25.19 12.6 54.6 48 1.8 35.2
06:50 1024 30.24 853 25.19 13 55.4 48 2.3 36.1
06:55 1024 30.24 853 25.19 13.3 55.9 48 2.6 36.6
07:00 1024 30.24 853 25.19 13.4 56.1 50 3.3 37.9
07:05 1024 30.24 853 25.19 13.5 56.4 49 3.1 37.6
07:10 1024 30.24 853 25.19 13.8 56.9 49 3.3 37.9
07:15 1024 30.24 853 25.19 14 57.2 47 2.8 37.1
07:20 1024 30.24 854 25.22 14.6 58.3 42 2 35.6
07:25 1024 30.24 854 25.22 15 58.9 44 2.9 37.1
07:30 1024 30.24 854 25.22 15.5 59.9 40 1.9 35.5
07:35 1025 30.27 854 25.22 16.1 60.9 37 1.6 34.9
07:40 1025 30.27 854 25.22 16.4 61.5 36 1.5 34.8
07:45 1025 30.27 854 25.22 17 62.6 32 0.5 32.8
07:50 1025 30.27 854 25.22 17.1 62.8 31 0 32
07:55 1025 30.27 854 25.22 17.5 63.5 29 -0.4 31.2
08:00 1025 30.27 854 25.22 17.9 64.1 29 -0.1 31.8
08:05 1025 30.27 854 25.22 18.2 64.7 28 -0.5 31.1
08:10 1025 30.27 854 25.22 18.1 64.7 29 -0.1 31.8
08:15 1025 30.27 854 25.22 18.5 65.3 28 -0.4 31.3
08:20 1025 30.27 854 25.22 18.6 65.4 28 -0 32
08:25 1025 30.27 854 25.22 18.2 64.7 29 -0.1 31.8
08:30 1025 30.27 854 25.22 18 64.4 27 -1 30.3
08:35 1025 30.27 854 25.22 18.5 65.2 26 -1.5 29.3
08:40 1025 30.27 854 25.22 18.6 65.5 29 0.2 32.3
08:45 1025 30.27 854 25.22 18.7 65.6 27 -0.4 31.3
08:50 1025 30.27 854 25.22 19.5 67 28 0.7 33.3
08:55 1025 30.27 854 25.22 19.4 66.9 29 1 33.7
09:00 1025 30.27 854 25.22 18.6 65.5 29 0.6 33
09:05 1024 30.24 854 25.22 18.2 64.8 31 0.8 33.4
09:10 1024 30.24 854 25.22 18.9 66.1 30 1 33.7
09:15 1024 30.24 854 25.22 19.3 66.7 29 0.9 33.6
09:20 1024 30.24 854 25.22 19.5 67 30 1.5 34.6
09:25 1024 30.24 854 25.22 19.7 67.4 29 1.3 34.3
09:30 1024 30.24 854 25.22 19.7 67.4 28 0.9 33.6
09:35 1024 30.24 854 25.22 19.7 67.4 29 1.4 34.4
09:40 1024 30.24 854 25.22 19.8 67.6 28 0.9 33.7
09:45 1024 30.24 854 25.22 20.5 68.8 27 0.9 33.6
09:50 1024 30.24 854 25.22 20.8 69.5 26 0.6 33.1
09:55 1024 30.24 854 25.22 20.9 69.6 28 1.9 35.4
10:00 1024 30.24 854 25.22 21.3 70.3 25 0.8 33.4
10:05 1024 30.24 853 25.19 21.4 70.6 25 0.7 33.2
10:10 1024 30.24 853 25.19 21.8 71.2 25 0.9 33.5
10:15 1024 30.24 853 25.19 22 71.6 26 2 35.5
10:20 1024 30.24 853 25.19 21.6 70.9 26 1.5 34.8
10:25 1024 30.24 853 25.19 22.3 72.1 23 0.6 33
10:30 1024 30.24 853 25.19 22 71.6 25 1.5 34.7
10:35 1024 30.24 853 25.19 22 71.6 26 1.6 34.9
10:40 1024 30.24 853 25.19 22.3 72.1 25 1.6 34.9
10:45 1024 30.24 853 25.19 22.3 72.1 25 1.4 34.5
10:50 1024 30.24 853 25.19 22.2 72 23 0.4 32.7
10:55 1024 30.24 853 25.19 22.8 73 24 1.2 34.1
11:00 1024 30.24 853 25.19 23 73.4 23 0.9 33.7
11:05 1024 30.24 853 25.19 23.4 74 24 1.9 35.5
11:10 1024 30.24 853 25.19 22.5 72.6 26 2.5 36.4
11:15 1024 30.24 853 25.19 23.4 74.1 23 1.5 34.8
11:20 1024 30.24 853 25.19 23.9 74.9 24 2.4 36.3
11:25 1024 30.24 853 25.19 23.8 74.9 24 2.5 36.5
11:30 1024 30.24 853 25.19 23.8 74.8 25 2.8 37
11:35 1024 30.24 853 25.19 24.3 75.7 24 2.5 36.5
11:40 1024 30.24 853 25.19 24.8 76.6 22 1.9 35.5
11:45 1023 30.21 853 25.19 24.6 76.3 24 2.7 36.9
11:50 1023 30.21 853 25.19 24.6 76.3 24 2.8 37
11:55 1023 30.21 853 25.19 24.7 76.5 23 2.4 36.3
12:00 1023 30.21 853 25.19 24.9 76.8 23 2.5 36.5
12:05 1023 30.21 853 25.19 24.9 76.7 23 2.7 36.8
12:10 1023 30.21 853 25.19 25.2 77.3 22 2.4 36.4
12:15 1023 30.21 853 25.19 24.2 75.6 24 2.4 36.3
12:20 1023 30.21 852 25.16 24.2 75.5 23 2 35.6
12:25 1023 30.21 852 25.16 24.6 76.2 22 1.8 35.2
12:30 1023 30.21 852 25.16 24.7 76.4 22 2.1 35.7
12:35 1023 30.21 852 25.16 25.5 77.8 21 1.9 35.4
12:40 1023 30.21 852 25.16 25.4 77.7 21 1.5 34.7
12:45 1023 30.21 852 25.16 25.1 77.2 21 1.3 34.4
12:50 1023 30.21 852 25.16 26.2 79.1 19 0.8 33.4
12:55 1023 30.21 852 25.16 26.2 79.1 20 1.4 34.5
13:00 1023 30.21 852 25.16 25.9 78.7 21 2 35.5
13:05 1023 30.21 852 25.16 25.3 77.6 20 0.8 33.5
13:10 1023 30.21 852 25.16 26.5 79.7 18 0.4 32.6
13:15 1023 30.21 852 25.16 27.1 80.8 18 0.8 33.4
13:20 1023 30.21 852 25.16 26.9 80.4 18 0.8 33.4
13:25 1023 30.21 852 25.16 27 80.5 18 0.7 33.3
13:30 1022 30.18 852 25.16 26.7 80 18 0.7 33.3
13:35 1022 30.18 852 25.16 26.7 80.1 18 0.9 33.6
13:40 1022 30.18 851 25.13 26.6 79.9 17 0.2 32.4
13:45 1022 30.18 851 25.13 26.7 80.1 17 -0 32
13:50 1022 30.18 851 25.13 27 80.6 16 -0.7 30.8
13:55 1022 30.18 851 25.13 26.6 80 17 0.1 32.2
14:00 1022 30.18 851 25.13 27.2 80.9 16 -0.1 31.8
14:05 1022 30.18 851 25.13 27.5 81.4 17 0.5 32.9
14:10 1022 30.18 851 25.13 27.3 81.2 15 -1 30.2
14:15 1022 30.18 851 25.13 27.5 81.6 15 -0.9 30.3
14:20 1022 30.18 851 25.13 27.6 81.7 16 0.1 32.2
14:25 1022 30.18 851 25.13 27.7 81.9 16 -0.5 31.2
14:30 1022 30.18 851 25.13 27.5 81.5 15 -1.5 29.3
14:35 1022 30.18 851 25.13 27 80.5 17 -0.3 31.5
14:40 1022 30.18 851 25.13 26.8 80.2 15 -1.3 29.6
14:45 1022 30.18 851 25.13 26.1 79.1 15 -1.9 28.6
14:50 1022 30.18 851 25.13 27.4 81.3 14 -2.5 27.5
14:55 1022 30.18 851 25.13 28 82.4 15 -1.1 30
15:00 1022 30.18 851 25.13 27.8 82 15 -1 30.2
15:05 1021 30.15 851 25.13 27.5 81.5 15 -1.6 29.1
15:10 1021 30.15 851 25.13 28.2 82.7 14 -1.9 28.5
15:15 1021 30.15 851 25.13 27.6 81.8 15 -0.8 30.6
15:20 1021 30.15 850 25.1 26.2 79.2 16 -1.7 29
15:25 1021 30.15 850 25.1 26.5 79.7 17 -0.6 31
15:30 1021 30.15 850 25.1 26.2 79.2 16 -1 30.1
15:35 1021 30.15 850 25.1 26.2 79.2 15 -2 28.4
15:40 1021 30.15 850 25.1 27.1 80.7 15 -1.4 29.5
15:45 1021 30.15 850 25.1 27.9 82.1 15 -1.3 29.7
15:50 1021 30.15 850 25.1 28.2 82.8 15 -0.9 30.3
15:55 1021 30.15 850 25.1 28 82.3 15 -0.8 30.6
16:00 1021 30.15 850 25.1 27.5 81.4 15 -1.4 29.6
16:05 1021 30.15 850 25.1 27.8 82 15 -1.4 29.5
16:10 1021 30.15 850 25.1 27.5 81.4 14 -2.4 27.7
16:15 1021 30.15 850 25.1 26.7 80.1 15 -2.2 28.1
16:20 1021 30.15 850 25.1 27.1 80.9 14 -2 28.4
16:25 1021 30.15 850 25.1 27.9 82.3 14 -1.8 28.7
16:30 1021 30.15 850 25.1 27.9 82.2 14 -1.4 29.4
16:35 1021 30.15 850 25.1 27.9 82.2 15 -1 30.1
16:40 1021 30.15 850 25.1 27.6 81.6 14 -2.2 28
16:45 1021 30.15 850 25.1 27.2 81 13 -3.2 26.2
16:50 1021 30.15 850 25.1 27.5 81.6 13 -2.6 27.3
16:55 1021 30.15 850 25.1 27 80.6 14 -2.2 28.1
17:00 1021 30.15 850 25.1 26.9 80.4 14 -2.6 27.4
17:05 1021 30.15 850 25.1 27.6 81.6 13 -3.5 25.8
17:10 1021 30.15 850 25.1 26.7 80 18 0.7 33.3
17:15 1021 30.15 850 25.1 26.1 79 19 0.8 33.5
17:20 1021 30.15 850 25.1 26.1 78.9 19 0.6 33
17:25 1021 30.15 850 25.1 26.1 79 19 1.1 34
17:30 1021 30.15 850 25.1 25.8 78.5 19 1 33.9
17:35 1021 30.15 850 25.1 25.6 78.1 20 0.9 33.7
17:40 1021 30.15 850 25.1 25.4 77.6 19 0.4 32.8
17:45 1021 30.15 850 25.1 25.1 77.2 20 0.5 32.9
17:50 1021 30.15 850 25.1 25.1 77.1 20 0.9 33.6
17:55 1021 30.15 850 25.1 25.1 77.2 21 1.2 34.1
18:00 1021 30.15 850 25.1 25 76.9 21 1.5 34.7
18:05 1021 30.15 850 25.1 24.9 76.8 21 1.6 34.8
18:10 1021 30.15 850 25.1 24.7 76.5 22 1.6 34.9
18:15 1021 30.15 850 25.1 24.6 76.3 21 1.3 34.4
18:20 1021 30.15 850 25.1 24.6 76.3 21 1.2 34.2
18:25 1021 30.15 850 25.1 24.5 76 21 1.1 33.9
18:30 1021 30.15 850 25.1 24.3 75.7 21 0.8 33.5
18:35 1021 30.15 850 25.1 24.1 75.4 22 1.1 34
18:40 1021 30.15 850 25.1 23.7 74.6 24 1.9 35.4
18:45 1021 30.15 850 25.1 23.3 73.9 24 2.1 35.8
18:50 1021 30.15 851 25.13 23 73.3 25 2 35.5
18:55 1021 30.15 851 25.13 22.7 72.9 25 1.8 35.3
19:00 1021 30.15 851 25.13 22.5 72.5 26 2.1 35.7
19:05 1021 30.15 851 25.13 22.3 72.1 26 2.1 35.9
19:10 1021 30.15 851 25.13 22.1 71.8 27 2.2 36
19:15 1022 30.18 851 25.13 22 71.6 27 2.5 36.5
19:20 1022 30.18 851 25.13 21.9 71.4 28 2.6 36.7
19:25 1022 30.18 851 25.13 21.8 71.2 29 2.9 37.2
19:30 1022 30.18 851 25.13 21.5 70.7 29 3.1 37.5
19:35 1022 30.18 851 25.13 21.3 70.3 30 3.3 37.9
19:40 1022 30.18 851 25.13 21.2 70.1 30 3 37.4
19:45 1022 30.18 851 25.13 21.2 70.2 30 3.1 37.6
19:50 1022 30.18 851 25.13 21.1 70.1 30 3.2 37.7
19:55 1022 30.18 851 25.13 21.2 70.1 30 3.2 37.7
20:00 1022 30.18 851 25.13 21 69.8 31 3.3 37.9
20:05 1022 30.18 851 25.13 20.8 69.5 31 3.2 37.8
20:10 1022 30.18 851 25.13 20.7 69.3 31 3.3 37.9
20:15 1022 30.18 852 25.16 20.5 68.9 31 3.2 37.7
20:20 1022 30.18 852 25.16 20.3 68.5 32 3.2 37.7
20:25 1022 30.18 852 25.16 20.2 68.3 32 3 37.4
20:30 1023 30.21 852 25.16 20.1 68.1 32 2.9 37.2
20:35 1023 30.21 852 25.16 20 68 31 2.7 36.9
20:40 1023 30.21 852 25.16 20 67.9 31 2.6 36.7
20:45 1023 30.21 852 25.16 19.9 67.8 31 2.5 36.6
20:50 1023 30.21 852 25.16 20 68 31 2.6 36.7
20:55 1023 30.21 852 25.16 20 68 32 2.8 37.1
21:00 1023 30.21 852 25.16 20 67.9 32 2.8 37.1
21:05 1023 30.21 852 25.16 20 68 32 2.9 37.2
21:10 1023 30.21 852 25.16 19.9 67.9 33 3.1 37.6
21:15 1023 30.21 852 25.16 19.8 67.6 33 3.3 37.9
21:20 1023 30.21 852 25.16 19.8 67.6 34 3.4 38.2
21:25 1023 30.21 852 25.16 19.7 67.5 34 3.6 38.5
21:30 1023 30.21 852 25.16 19.7 67.5 35 4.2 39.5
21:35 1023 30.21 852 25.16 19.7 67.4 36 4.4 39.9
21:40 1023 30.21 852 25.16 19.6 67.2 37 4.6 40.4
21:45 1023 30.21 852 25.16 19.4 66.9 38 4.8 40.6
21:50 1023 30.21 852 25.16 19.3 66.8 38 4.9 40.7
21:55 1023 30.21 852 25.16 19.3 66.8 38 4.9 40.9
22:00 1023 30.21 852 25.16 19.3 66.7 39 5.1 41.2
22:05 1023 30.21 852 25.16 19.1 66.4 40 5.3 41.5
22:10 1023 30.21 852 25.16 19 66.2 41 5.5 41.9
22:15 1023 30.21 852 25.16 19 66.1 41 5.5 42
22:20 1023 30.21 852 25.16 18.9 66 41 5.6 42
22:25 1023 30.21 852 25.16 18.8 65.9 41 5.6 42.1
22:30 1023 30.21 852 25.16 18.7 65.7 42 5.8 42.4
22:35 1023 30.21 852 25.16 18.7 65.6 42 5.8 42.4
22:40 1023 30.21 852 25.16 18.6 65.5 43 5.8 42.4
22:45 1023 30.21 852 25.16 18.6 65.6 43 5.9 42.6
22:50 1023 30.21 852 25.16 18.6 65.4 43 6 42.8
22:55 1023 30.21 852 25.16 18.4 65.2 44 6.1 43
23:00 1023 30.21 852 25.16 18.3 65 45 6.4 43.5
23:05 1023 30.21 852 25.16 18.2 64.7 46 6.5 43.6
23:10 1023 30.21 852 25.16 18.1 64.5 46 6.5 43.7
23:15 1023 30.21 852 25.16 18 64.4 47 6.6 43.9
23:20 1023 30.21 853 25.19 17.9 64.2 48 6.7 44.1
23:25 1023 30.21 853 25.19 17.7 63.9 48 6.8 44.3
23:30 1023 30.21 853 25.19 17.5 63.6 49 6.8 44.2
23:35 1023 30.21 853 25.19 17.5 63.4 49 6.9 44.4
23:40 1023 30.21 853 25.19 17.3 63.2 50 7 44.5
23:45 1023 30.21 853 25.19 17.2 62.9 51 7 44.6
23:50 1023 30.21 853 25.19 17 62.5 52 7.1 44.7
23:55 1023 30.21 853 25.19 16.8 62.3 52 7.1 44.7
24:00 1023 30.21 853 25.19 16.8 62.2 52 7 44.6